createdAt,value
2023-05-08T00:01:28.017Z,18.80
2023-05-08T00:03:57.197Z,18.90
2023-05-08T00:06:27.706Z,18.70
2023-05-08T00:08:56.790Z,18.70
2023-05-08T00:11:27.540Z,18.60
2023-05-08T00:13:56.810Z,18.70
2023-05-08T00:16:26.166Z,18.70
2023-05-08T00:18:55.105Z,18.60
2023-05-08T00:21:24.816Z,18.80
2023-05-08T00:23:54.221Z,19.00
2023-05-08T00:26:23.332Z,19.20
2023-05-08T00:28:54.127Z,18.90
2023-05-08T00:31:24.304Z,18.70
2023-05-08T00:33:53.665Z,18.70
2023-05-08T00:36:22.931Z,18.80
2023-05-08T00:38:51.882Z,19.00
2023-05-08T00:41:21.078Z,19.10
2023-05-08T00:43:50.300Z,19.20
2023-05-08T00:46:20.631Z,19.30
2023-05-08T00:48:49.973Z,19.10
2023-05-08T00:51:19.630Z,19.10
2023-05-08T00:53:48.617Z,19.20
2023-05-08T00:56:20.455Z,19.10
2023-05-08T00:58:50.046Z,19.30
2023-05-08T01:01:20.424Z,19.30
2023-05-08T01:03:49.842Z,19.40
2023-05-08T01:06:19.066Z,19.30
2023-05-08T01:08:48.127Z,19.10
2023-05-08T01:11:23.925Z,18.90
2023-05-08T01:13:59.524Z,18.80
2023-05-08T01:16:39.212Z,18.80
2023-05-08T01:19:23.177Z,18.80
2023-05-08T01:21:58.558Z,19.00
2023-05-08T01:24:59.242Z,19.20
2023-05-08T01:28:04.290Z,19.40
2023-05-08T01:30:50.890Z,19.40
2023-05-08T01:33:28.888Z,19.60
2023-05-08T01:36:01.425Z,19.60
2023-05-08T01:38:36.048Z,19.60
2023-05-08T01:41:10.712Z,19.60
2023-05-08T01:43:47.472Z,19.60
2023-05-08T01:46:20.919Z,19.60
2023-05-08T01:49:00.407Z,19.60
2023-05-08T01:51:34.839Z,19.50
2023-05-08T01:54:10.578Z,19.60
2023-05-08T01:56:41.619Z,19.60
2023-05-08T01:59:15.316Z,19.60
2023-05-08T02:01:47.479Z,19.60
2023-05-08T02:04:19.859Z,19.60
2023-05-08T02:06:49.051Z,19.60
2023-05-08T02:09:20.010Z,19.70
2023-05-08T02:11:51.557Z,19.50
2023-05-08T02:14:22.289Z,19.60
2023-05-08T02:16:56.366Z,19.40
2023-05-08T02:19:29.834Z,19.30
2023-05-08T02:22:00.238Z,19.30
2023-05-08T02:24:29.572Z,19.10
2023-05-08T02:27:00.396Z,19.20
2023-05-08T02:29:31.702Z,19.20
2023-05-08T02:32:03.858Z,19.20
2023-05-08T02:34:35.342Z,19.20
2023-05-08T02:37:05.432Z,19.10
2023-05-08T02:39:36.934Z,19.10
2023-05-08T02:42:06.365Z,19.10
2023-05-08T02:44:35.374Z,19.20
2023-05-08T02:47:20.399Z,19.30
2023-05-08T02:49:56.227Z,19.40
2023-05-08T02:52:30.324Z,19.40
2023-05-08T02:55:03.538Z,19.30
2023-05-08T02:57:41.185Z,19.20
2023-05-08T03:00:20.591Z,19.30
2023-05-08T03:02:54.732Z,19.10
2023-05-08T03:05:30.908Z,19.30
2023-05-08T03:08:05.264Z,19.70
2023-05-08T03:10:37.848Z,19.40
2023-05-08T03:13:09.633Z,19.30
2023-05-08T03:15:51.948Z,19.30
2023-05-08T03:18:26.936Z,19.40
2023-05-08T03:21:00.830Z,19.20
2023-05-08T03:23:32.206Z,19.20
2023-05-08T03:26:04.529Z,19.10
2023-05-08T03:28:37.117Z,19.10
2023-05-08T03:31:07.587Z,19.20
2023-05-08T03:33:40.212Z,19.00
2023-05-08T03:36:11.493Z,19.00
2023-05-08T03:38:41.069Z,19.00
2023-05-08T03:41:10.143Z,19.00
2023-05-08T03:43:39.571Z,19.00
2023-05-08T03:46:09.684Z,18.90
2023-05-08T03:48:39.908Z,19.00
2023-05-08T03:51:11.332Z,19.00
2023-05-08T03:53:41.098Z,19.00
2023-05-08T03:56:10.197Z,19.00
2023-05-08T03:58:45.974Z,18.90
2023-05-08T04:01:41.882Z,18.90
2023-05-08T04:04:19.938Z,19.00
2023-05-08T04:06:55.834Z,19.00
2023-05-08T04:09:38.877Z,19.10
2023-05-08T04:12:16.301Z,19.00
2023-05-08T04:14:49.918Z,19.00
2023-05-08T04:17:24.840Z,19.00
2023-05-08T04:20:01.801Z,19.10
2023-05-08T04:22:33.822Z,19.00
2023-05-08T04:25:07.232Z,18.90
2023-05-08T04:27:37.106Z,18.80
2023-05-08T04:30:07.621Z,18.80
2023-05-08T04:32:40.271Z,18.80
2023-05-08T04:35:11.544Z,18.70
2023-05-08T04:37:43.447Z,18.80
2023-05-08T04:40:13.777Z,18.80
2023-05-08T04:42:47.444Z,18.80
2023-05-08T04:45:19.507Z,18.90
2023-05-08T04:47:48.799Z,18.80
2023-05-08T04:50:18.207Z,18.70
2023-05-08T04:52:48.937Z,18.60
2023-05-08T04:55:18.253Z,18.60
2023-05-08T04:57:48.746Z,18.50
2023-05-08T05:00:19.022Z,18.50
2023-05-08T05:02:48.981Z,18.50
2023-05-08T05:05:18.105Z,18.50
2023-05-08T05:07:49.027Z,18.50
2023-05-08T05:10:19.152Z,18.50
2023-05-08T05:12:48.665Z,18.50
2023-05-08T05:15:17.784Z,18.40
2023-05-08T05:17:47.008Z,18.40
2023-05-08T05:20:16.600Z,18.40
2023-05-08T05:22:48.157Z,18.50
2023-05-08T05:25:17.181Z,18.40
2023-05-08T05:27:46.991Z,18.40
2023-05-08T05:30:17.724Z,18.50
2023-05-08T05:32:47.200Z,18.60
2023-05-08T05:35:16.273Z,18.60
2023-05-08T05:37:45.735Z,18.60
2023-05-08T05:40:16.664Z,18.60
2023-05-08T05:42:51.193Z,18.50
2023-05-08T05:45:21.667Z,18.50
2023-05-08T05:47:54.480Z,18.60
2023-05-08T05:50:27.339Z,18.50
2023-05-08T05:52:58.178Z,18.60
2023-05-08T05:55:30.016Z,18.80
2023-05-08T05:58:00.394Z,18.90
2023-05-08T06:00:30.898Z,19.00
2023-05-08T06:03:02.614Z,18.90
2023-05-08T06:05:32.910Z,18.90
2023-05-08T06:08:01.954Z,19.00
2023-05-08T06:10:33.086Z,18.90
2023-05-08T06:13:02.483Z,19.00
2023-05-08T06:15:31.747Z,18.90
2023-05-08T06:18:01.036Z,19.00
2023-05-08T06:20:30.907Z,19.20
2023-05-08T06:23:00.002Z,19.20
2023-05-08T06:25:29.535Z,19.20
2023-05-08T06:28:00.065Z,19.20
2023-05-08T06:30:29.444Z,19.20
2023-05-08T06:32:58.455Z,19.30
2023-05-08T06:35:27.977Z,19.40
2023-05-08T06:37:57.391Z,19.40
2023-05-08T06:40:26.560Z,19.40
2023-05-08T06:42:55.625Z,19.50
2023-05-08T06:45:26.281Z,19.60
2023-05-08T06:47:55.237Z,19.80
2023-05-08T06:50:24.722Z,19.90
2023-05-08T06:52:53.963Z,20.20
2023-05-08T06:55:23.224Z,20.30
2023-05-08T06:57:52.245Z,20.30
2023-05-08T07:00:21.862Z,20.30
2023-05-08T07:02:53.154Z,20.30
2023-05-08T07:05:22.646Z,20.20
2023-05-08T07:07:54.235Z,20.10
2023-05-08T07:10:23.989Z,20.20
2023-05-08T07:12:53.147Z,20.40
2023-05-08T07:15:26.466Z,20.60
2023-05-08T07:17:57.798Z,20.60
2023-05-08T07:20:28.272Z,20.50
2023-05-08T07:22:57.424Z,20.50
2023-05-08T07:25:26.938Z,20.50
2023-05-08T07:27:56.245Z,20.50
2023-05-08T07:30:25.276Z,20.60
2023-05-08T07:32:54.664Z,20.80
2023-05-08T07:35:25.326Z,20.90
2023-05-08T07:37:54.615Z,21.00
2023-05-08T07:40:23.908Z,21.00
2023-05-08T07:42:53.325Z,21.10
2023-05-08T07:45:22.775Z,21.20
2023-05-08T07:47:53.181Z,21.30
2023-05-08T07:50:23.517Z,21.30
2023-05-08T07:52:54.292Z,21.50
2023-05-08T07:55:23.485Z,21.50
2023-05-08T07:57:52.834Z,21.60
2023-05-08T08:00:22.291Z,21.60
2023-05-08T08:02:51.420Z,21.80
2023-05-08T08:05:20.891Z,21.80
2023-05-08T08:07:50.049Z,22.00
2023-05-08T08:10:20.878Z,22.00
2023-05-08T08:12:50.302Z,22.20
2023-05-08T08:15:19.542Z,22.10
2023-05-08T08:17:49.133Z,22.10
2023-05-08T08:20:18.758Z,22.10
2023-05-08T08:22:47.577Z,22.20
2023-05-08T08:25:16.619Z,22.30
2023-05-08T08:27:47.116Z,22.40
2023-05-08T08:30:18.038Z,22.60
2023-05-08T08:32:48.185Z,22.70
2023-05-08T08:35:18.193Z,22.70
2023-05-08T08:37:47.422Z,22.50
2023-05-08T08:40:17.276Z,22.40
2023-05-08T08:42:47.908Z,22.40
2023-05-08T08:45:17.299Z,22.40
2023-05-08T08:47:49.742Z,22.60
2023-05-08T08:50:22.279Z,22.80
2023-05-08T08:53:02.097Z,23.00
2023-05-08T08:55:32.719Z,23.10
2023-05-08T08:58:15.827Z,22.80
2023-05-08T09:00:47.700Z,23.10
2023-05-08T09:03:17.420Z,23.10
2023-05-08T09:05:47.189Z,23.00
2023-05-08T09:08:16.399Z,22.80
2023-05-08T09:10:45.586Z,23.00
2023-05-08T09:13:17.440Z,22.90
2023-05-08T09:15:49.295Z,23.00
2023-05-08T09:18:19.530Z,23.10
2023-05-08T09:20:49.252Z,23.00
2023-05-08T09:23:18.886Z,23.10
2023-05-08T09:25:50.662Z,22.80
2023-05-08T09:28:22.689Z,22.70
2023-05-08T09:30:55.952Z,23.00
2023-05-08T09:33:28.354Z,23.30
2023-05-08T09:35:58.668Z,22.90
2023-05-08T09:38:38.136Z,23.00
2023-05-08T09:41:15.961Z,23.20
2023-05-08T09:44:01.222Z,23.30
2023-05-08T09:46:30.609Z,23.40
2023-05-08T09:49:00.938Z,23.40
2023-05-08T09:51:32.193Z,23.60
2023-05-08T09:54:05.907Z,23.30
2023-05-08T09:56:36.419Z,23.30
2023-05-08T09:59:24.657Z,23.40
2023-05-08T10:01:56.214Z,23.50
2023-05-08T10:04:35.417Z,23.80
2023-05-08T10:07:05.004Z,23.70
2023-05-08T10:09:47.036Z,23.70
2023-05-08T10:12:19.677Z,24.00
2023-05-08T10:14:50.477Z,23.90
2023-05-08T10:17:24.851Z,23.90
2023-05-08T10:20:00.335Z,23.90
2023-05-08T10:22:31.361Z,24.10
2023-05-08T10:25:02.364Z,24.30
2023-05-08T10:27:42.867Z,24.50
2023-05-08T10:30:18.312Z,23.70
2023-05-08T10:32:52.425Z,23.40
2023-05-08T10:35:21.797Z,23.60
2023-05-08T10:37:51.889Z,23.70
2023-05-08T10:40:22.192Z,24.10
2023-05-08T10:42:53.008Z,24.30
2023-05-08T10:45:23.895Z,24.30
2023-05-08T10:48:01.267Z,24.20
2023-05-08T10:50:44.247Z,24.30
2023-05-08T10:53:18.875Z,23.70
2023-05-08T10:55:52.351Z,23.60
2023-05-08T10:58:32.699Z,23.70
2023-05-08T11:01:28.503Z,24.10
2023-05-08T11:03:58.464Z,24.10
2023-05-08T11:06:49.456Z,24.20
2023-05-08T11:09:23.299Z,23.50
2023-05-08T11:12:05.424Z,23.60
2023-05-08T11:14:37.805Z,24.40
2023-05-08T11:17:10.094Z,24.60
2023-05-08T11:19:40.132Z,24.50
2023-05-08T11:22:24.893Z,24.60
2023-05-08T11:25:05.432Z,24.60
2023-05-08T11:27:57.127Z,24.00
2023-05-08T11:30:37.545Z,23.90
2023-05-08T11:33:18.495Z,24.00
2023-05-08T11:35:57.235Z,24.30
2023-05-08T11:38:36.238Z,24.60
2023-05-08T11:41:07.516Z,24.70
2023-05-08T11:44:15.456Z,24.70
2023-05-08T11:46:50.170Z,24.80
2023-05-08T11:49:26.019Z,24.90
2023-05-08T11:52:00.463Z,24.50
2023-05-08T11:54:32.481Z,24.20
2023-05-08T11:57:02.607Z,24.40
2023-05-08T11:59:37.927Z,24.00
2023-05-08T12:02:09.571Z,23.60
2023-05-08T12:04:48.855Z,23.40
2023-05-08T12:07:18.806Z,23.30
2023-05-08T12:09:49.062Z,22.70
2023-05-08T12:12:18.155Z,22.80
2023-05-08T12:14:51.541Z,23.30
2023-05-08T12:17:20.912Z,23.10
2023-05-08T12:19:56.644Z,22.50
2023-05-08T12:22:25.897Z,22.80
2023-05-08T12:24:54.846Z,22.80
2023-05-08T12:27:26.111Z,23.20
2023-05-08T12:29:55.478Z,23.40
2023-05-08T12:32:25.487Z,24.10
2023-05-08T12:34:57.057Z,24.40
2023-05-08T12:37:28.322Z,24.50
2023-05-08T12:39:57.712Z,24.20
2023-05-08T12:42:44.784Z,24.50
2023-05-08T12:45:20.621Z,24.60
2023-05-08T12:47:50.159Z,24.10
2023-05-08T12:50:22.649Z,24.30
2023-05-08T12:52:52.103Z,24.10
2023-05-08T12:55:25.889Z,24.20
2023-05-08T12:58:01.928Z,23.80
2023-05-08T13:00:38.498Z,23.70
2023-05-08T13:03:08.411Z,23.40
2023-05-08T13:05:42.797Z,23.50
2023-05-08T13:08:12.573Z,23.40
2023-05-08T13:10:52.194Z,23.70
2023-05-08T13:13:22.891Z,23.80
2023-05-08T13:15:54.238Z,24.10
2023-05-08T13:18:26.213Z,24.40
2023-05-08T13:20:57.491Z,24.20
2023-05-08T13:23:26.983Z,24.10
2023-05-08T13:25:57.056Z,24.20
2023-05-08T13:28:26.227Z,24.60
2023-05-08T13:30:55.296Z,24.90
2023-05-08T13:33:24.702Z,24.90
2023-05-08T13:35:54.054Z,25.10
2023-05-08T13:38:24.872Z,25.10
2023-05-08T13:40:54.076Z,24.90
2023-05-08T13:43:23.460Z,24.70
2023-05-08T13:45:53.003Z,24.00
2023-05-08T13:48:22.252Z,23.90
2023-05-08T13:50:51.468Z,23.90
2023-05-08T13:53:20.731Z,24.00
2023-05-08T13:55:51.207Z,24.20
2023-05-08T13:58:20.171Z,23.80
2023-05-08T14:00:50.387Z,24.10
2023-05-08T14:03:19.648Z,23.60
2023-05-08T14:05:48.534Z,23.70
2023-05-08T14:08:17.861Z,23.80
2023-05-08T14:10:46.752Z,23.60
2023-05-08T14:13:18.026Z,23.90
2023-05-08T14:15:47.212Z,23.60
2023-05-08T14:18:16.081Z,23.70
2023-05-08T14:20:48.991Z,23.60
2023-05-08T14:23:20.909Z,23.30
2023-05-08T14:25:49.769Z,23.70
2023-05-08T14:28:21.812Z,23.90
2023-05-08T14:30:50.706Z,23.90
2023-05-08T14:33:19.727Z,23.90
2023-05-08T14:35:49.064Z,23.70
2023-05-08T14:38:18.129Z,23.60
2023-05-08T14:40:47.293Z,23.50
2023-05-08T14:43:16.627Z,23.40
2023-05-08T14:45:47.683Z,23.30
2023-05-08T14:48:16.890Z,23.10
2023-05-08T14:50:45.939Z,23.10
2023-05-08T14:53:15.350Z,23.10
2023-05-08T14:55:45.127Z,23.40
2023-05-08T14:58:14.828Z,23.50
2023-05-08T15:00:43.913Z,23.60
2023-05-08T15:03:14.780Z,23.70
2023-05-08T15:05:44.352Z,23.90
2023-05-08T15:08:13.774Z,23.80
2023-05-08T15:10:42.828Z,23.90
2023-05-08T15:13:11.929Z,24.00
2023-05-08T15:15:41.234Z,23.90
2023-05-08T15:18:10.357Z,23.80
2023-05-08T15:20:40.733Z,23.80
2023-05-08T15:23:10.297Z,24.00
2023-05-08T15:25:39.354Z,24.30
2023-05-08T15:28:08.432Z,24.40
2023-05-08T15:30:37.582Z,24.40
2023-05-08T15:33:06.654Z,24.60
2023-05-08T15:35:35.938Z,24.70
2023-05-08T15:38:07.874Z,24.60
2023-05-08T15:40:36.899Z,23.90
2023-05-08T15:43:05.859Z,24.00
2023-05-08T15:45:35.414Z,23.80
2023-05-08T15:48:04.435Z,23.70
2023-05-08T15:50:33.690Z,23.90
2023-05-08T15:53:03.273Z,23.80
2023-05-08T15:55:34.350Z,23.70
2023-05-08T15:58:03.836Z,23.50
2023-05-08T16:00:43.986Z,23.30
2023-05-08T16:03:14.923Z,23.30
2023-05-08T16:05:44.694Z,22.80
2023-05-08T16:08:13.987Z,22.70
2023-05-08T16:10:45.164Z,22.40
2023-05-08T16:13:14.729Z,22.50
2023-05-08T16:15:43.951Z,22.60
2023-05-08T16:18:13.054Z,22.80
2023-05-08T16:20:43.833Z,22.50
2023-05-08T16:23:14.618Z,22.30
2023-05-08T16:25:45.119Z,22.30
2023-05-08T16:28:14.351Z,22.20
2023-05-08T16:30:43.549Z,22.10
2023-05-08T16:33:13.470Z,22.20
2023-05-08T16:35:42.572Z,22.20
2023-05-08T16:38:12.014Z,22.10
2023-05-08T16:40:42.020Z,22.10
2023-05-08T16:43:12.474Z,22.10
2023-05-08T16:45:42.677Z,22.40
2023-05-08T16:48:12.073Z,22.50
2023-05-08T16:50:41.228Z,22.30
2023-05-08T16:53:10.566Z,22.10
2023-05-08T16:55:39.407Z,22.10
2023-05-08T16:58:08.675Z,22.10
2023-05-08T17:00:39.655Z,22.10
2023-05-08T17:03:09.526Z,22.00
2023-05-08T17:05:39.226Z,22.40
2023-05-08T17:08:08.621Z,22.50
2023-05-08T17:10:37.721Z,22.30
2023-05-08T17:13:06.987Z,22.40
2023-05-08T17:15:36.126Z,22.20
2023-05-08T17:18:07.003Z,22.20
2023-05-08T17:20:41.258Z,22.40
2023-05-08T17:23:10.870Z,22.40
2023-05-08T17:25:39.864Z,22.30
2023-05-08T17:28:09.234Z,22.30
2023-05-08T17:30:38.168Z,22.40
2023-05-08T17:33:08.971Z,22.30
2023-05-08T17:35:38.436Z,22.30
2023-05-08T17:38:07.249Z,22.40
2023-05-08T17:40:36.936Z,22.50
2023-05-08T17:43:06.016Z,22.30
2023-05-08T17:45:35.502Z,22.20
2023-05-08T17:48:04.734Z,22.20
2023-05-08T17:50:35.621Z,22.30
2023-05-08T17:53:04.743Z,22.10
2023-05-08T17:55:34.782Z,22.00
2023-05-08T17:58:04.053Z,22.00
2023-05-08T18:00:33.832Z,21.80
2023-05-08T18:03:03.291Z,21.90
2023-05-08T18:05:32.648Z,21.80
2023-05-08T18:08:03.078Z,21.70
2023-05-08T18:10:33.112Z,21.70
2023-05-08T18:13:02.241Z,21.70
2023-05-08T18:15:31.443Z,21.80
2023-05-08T18:18:00.383Z,21.80
2023-05-08T18:20:29.687Z,21.80
2023-05-08T18:22:58.872Z,21.80
2023-05-08T18:25:29.578Z,21.80
2023-05-08T18:27:59.095Z,21.90
2023-05-08T18:30:28.058Z,21.90
2023-05-08T18:32:57.342Z,22.00
2023-05-08T18:35:26.548Z,22.00
2023-05-08T18:37:55.876Z,21.90
2023-05-08T18:40:24.921Z,21.80
2023-05-08T18:42:55.516Z,21.90
2023-05-08T18:45:24.507Z,21.80
2023-05-08T18:47:54.360Z,22.00
2023-05-08T18:50:23.706Z,22.00
2023-05-08T18:52:53.436Z,21.80
2023-05-08T18:55:23.164Z,21.60
2023-05-08T18:57:52.638Z,21.60
2023-05-08T19:00:23.340Z,21.50
2023-05-08T19:02:52.382Z,21.40
2023-05-08T19:05:21.787Z,21.40
2023-05-08T19:07:50.894Z,21.30
2023-05-08T19:10:19.704Z,21.40
2023-05-08T19:12:50.770Z,21.30
2023-05-08T19:15:19.954Z,21.30
2023-05-08T19:17:53.159Z,21.20
2023-05-08T19:20:22.704Z,21.30
2023-05-08T19:22:51.687Z,21.20
2023-05-08T19:25:21.186Z,21.30
2023-05-08T19:27:50.594Z,21.40
2023-05-08T19:30:19.784Z,21.30
2023-05-08T19:32:51.650Z,21.20
2023-05-08T19:35:21.321Z,21.20
2023-05-08T19:37:50.298Z,21.30
2023-05-08T19:40:19.989Z,21.20
2023-05-08T19:42:48.999Z,21.30
2023-05-08T19:45:18.096Z,21.20
2023-05-08T19:47:50.792Z,21.30
2023-05-08T19:50:19.967Z,21.30
2023-05-08T19:52:49.278Z,21.50
2023-05-08T19:55:19.488Z,21.50
2023-05-08T19:57:48.487Z,21.50
2023-05-08T20:00:18.175Z,21.30
2023-05-08T20:02:47.287Z,21.20
2023-05-08T20:05:22.577Z,21.10
2023-05-08T20:07:52.811Z,21.00
2023-05-08T20:10:21.983Z,21.00
2023-05-08T20:12:51.268Z,21.10
2023-05-08T20:15:20.825Z,21.00
2023-05-08T20:17:49.924Z,20.90
2023-05-08T20:20:20.524Z,21.00
2023-05-08T20:22:49.668Z,20.90
2023-05-08T20:25:18.770Z,20.90
2023-05-08T20:27:47.674Z,20.80
2023-05-08T20:30:17.090Z,20.80
2023-05-08T20:32:46.098Z,20.80
2023-05-08T20:35:15.816Z,20.70
2023-05-08T20:37:47.474Z,20.80
2023-05-08T20:40:16.848Z,20.70
2023-05-08T20:42:46.267Z,20.70
2023-05-08T20:45:15.634Z,20.70
2023-05-08T20:47:44.662Z,20.60
2023-05-08T20:50:16.314Z,20.70
2023-05-08T20:52:47.214Z,20.70
2023-05-08T20:55:16.614Z,20.70
2023-05-08T20:57:45.648Z,20.80
2023-05-08T21:00:15.650Z,20.90
2023-05-08T21:02:44.849Z,20.70
2023-05-08T21:05:14.302Z,20.70
2023-05-08T21:07:43.626Z,20.70
2023-05-08T21:10:14.580Z,20.80
2023-05-08T21:12:45.779Z,20.90
2023-05-08T21:15:15.225Z,20.90
2023-05-08T21:17:44.481Z,21.00
2023-05-08T21:20:14.846Z,21.10
2023-05-08T21:22:46.326Z,21.20
2023-05-08T21:25:20.538Z,20.90
2023-05-08T21:27:53.304Z,20.80
2023-05-08T21:30:23.787Z,20.70
2023-05-08T21:32:52.880Z,20.70
2023-05-08T21:35:22.314Z,20.70
2023-05-08T21:37:54.670Z,20.80
2023-05-08T21:40:25.301Z,20.70
2023-05-08T21:42:54.609Z,20.60
2023-05-08T21:45:23.554Z,20.60
2023-05-08T21:47:52.975Z,20.60
2023-05-08T21:50:22.011Z,20.70
2023-05-08T21:52:51.245Z,20.70
2023-05-08T21:55:20.464Z,20.70
2023-05-08T21:57:51.129Z,20.60
2023-05-08T22:00:21.161Z,20.40
2023-05-08T22:02:50.198Z,20.40
2023-05-08T22:05:19.504Z,20.40
2023-05-08T22:07:48.432Z,20.40
2023-05-08T22:10:18.076Z,20.40
2023-05-08T22:12:47.378Z,20.50
2023-05-08T22:15:29.153Z,20.60
2023-05-08T22:17:59.949Z,20.50
2023-05-08T22:20:29.173Z,20.20
2023-05-08T22:22:58.151Z,20.20
2023-05-08T22:25:27.502Z,20.30
2023-05-08T22:27:56.439Z,20.30
2023-05-08T22:30:26.956Z,20.30
2023-05-08T22:32:58.899Z,20.30
2023-05-08T22:35:28.564Z,20.30
2023-05-08T22:37:58.656Z,20.20
2023-05-08T22:40:28.567Z,20.30
2023-05-08T22:42:58.917Z,20.40
2023-05-08T22:45:29.788Z,20.40
2023-05-08T22:47:58.884Z,20.50
2023-05-08T22:50:27.923Z,20.40
2023-05-08T22:52:56.818Z,20.50
2023-05-08T22:55:26.007Z,20.40
2023-05-08T22:57:55.164Z,20.50
2023-05-08T23:00:24.765Z,20.50
2023-05-08T23:02:55.150Z,20.30
2023-05-08T23:05:24.680Z,20.30
2023-05-08T23:07:53.668Z,20.30
2023-05-08T23:10:23.153Z,20.30
2023-05-08T23:12:52.290Z,20.20
2023-05-08T23:15:22.453Z,20.40
2023-05-08T23:17:51.568Z,20.50
2023-05-08T23:20:22.143Z,20.50
2023-05-08T23:22:51.107Z,20.50
2023-05-08T23:25:20.064Z,20.50
2023-05-08T23:27:49.257Z,20.50
2023-05-08T23:48:53.190Z,20.40
2023-05-08T23:51:22.878Z,20.30
2023-05-08T23:53:53.621Z,20.40
2023-05-08T23:56:23.370Z,20.50
2023-05-08T23:58:52.518Z,20.40
